createdAt,value
2022-09-09T00:01:57.598Z,99.90
2022-09-09T00:04:36.332Z,99.90
2022-09-09T00:07:06.570Z,99.90
2022-09-09T00:09:40.721Z,99.90
2022-09-09T00:12:33.196Z,99.90
2022-09-09T00:15:35.061Z,99.90
2022-09-09T00:18:12.806Z,99.90
2022-09-09T00:20:54.970Z,99.90
2022-09-09T00:23:40.253Z,99.90
2022-09-09T00:26:17.005Z,99.90
2022-09-09T00:29:12.079Z,99.90
2022-09-09T00:31:39.905Z,99.90
2022-09-09T00:34:14.575Z,99.90
2022-09-09T00:36:42.573Z,99.90
2022-09-09T00:39:21.599Z,99.90
2022-09-09T00:42:09.594Z,99.90
2022-09-09T00:44:39.009Z,99.90
2022-09-09T00:47:43.345Z,99.90
2022-09-09T00:50:13.578Z,99.90
2022-09-09T00:52:55.726Z,99.90
2022-09-09T00:55:38.963Z,99.90
2022-09-09T00:58:09.508Z,99.90
2022-09-09T01:00:41.396Z,99.90
2022-09-09T01:03:25.045Z,99.90
2022-09-09T01:06:25.307Z,99.90
2022-09-09T01:09:14.518Z,99.90
2022-09-09T01:12:03.763Z,99.90
2022-09-09T01:14:36.196Z,99.90
2022-09-09T01:17:18.276Z,99.90
2022-09-09T01:19:57.670Z,99.90
2022-09-09T01:22:38.020Z,99.90
2022-09-09T01:25:30.205Z,99.90
2022-09-09T01:28:17.026Z,99.90
2022-09-09T01:30:44.546Z,99.90
2022-09-09T01:33:18.379Z,99.90
2022-09-09T01:36:10.472Z,99.90
2022-09-09T01:38:46.108Z,99.90
2022-09-09T01:41:13.596Z,99.90
2022-09-09T01:44:01.503Z,99.90
2022-09-09T01:46:30.697Z,99.90
2022-09-09T01:49:01.592Z,99.90
2022-09-09T01:51:29.941Z,99.90
2022-09-09T01:54:00.125Z,99.90
2022-09-09T01:56:40.892Z,99.90
2022-09-09T01:59:21.223Z,99.90
2022-09-09T02:02:34.657Z,99.90
2022-09-09T02:05:36.940Z,99.90
2022-09-09T02:08:10.278Z,99.90
2022-09-09T02:11:02.760Z,99.90
2022-09-09T02:13:40.243Z,99.90
2022-09-09T02:16:25.179Z,99.90
2022-09-09T02:19:26.766Z,99.90
2022-09-09T02:22:23.679Z,99.90
2022-09-09T02:24:54.783Z,99.90
2022-09-09T02:27:26.475Z,99.90
2022-09-09T02:29:55.185Z,99.90
2022-09-09T02:32:36.832Z,99.90
2022-09-09T02:35:11.873Z,99.90
2022-09-09T02:37:42.674Z,99.90
2022-09-09T02:40:14.337Z,99.90
2022-09-09T02:42:49.788Z,99.90
2022-09-09T02:45:21.778Z,99.90
2022-09-09T02:48:00.156Z,99.90
2022-09-09T02:50:35.571Z,99.90
2022-09-09T02:53:22.151Z,99.90
2022-09-09T02:55:57.623Z,99.90
2022-09-09T02:58:26.430Z,99.90
2022-09-09T03:01:04.721Z,99.90
2022-09-09T03:03:33.043Z,99.90
2022-09-09T03:06:03.480Z,99.90
2022-09-09T03:08:30.877Z,99.90
2022-09-09T03:11:02.408Z,99.90
2022-09-09T03:13:32.589Z,99.90
2022-09-09T03:16:00.875Z,99.90
2022-09-09T03:18:30.669Z,99.90
2022-09-09T03:21:00.446Z,99.90
2022-09-09T03:23:28.409Z,99.90
2022-09-09T03:25:58.108Z,99.90
2022-09-09T03:28:32.661Z,99.90
2022-09-09T03:31:03.413Z,99.90
2022-09-09T03:33:37.172Z,99.90
2022-09-09T03:36:06.240Z,99.90
2022-09-09T03:38:34.284Z,99.90
2022-09-09T03:41:02.888Z,99.90
2022-09-09T03:43:31.262Z,99.90
2022-09-09T03:45:59.336Z,99.90
2022-09-09T03:48:29.294Z,99.90
2022-09-09T03:50:58.848Z,99.90
2022-09-09T03:53:26.777Z,99.90
2022-09-09T03:55:56.191Z,99.90
2022-09-09T03:58:27.650Z,99.90
2022-09-09T04:01:01.619Z,99.90
2022-09-09T04:03:29.765Z,99.90
2022-09-09T04:05:59.402Z,99.90
2022-09-09T04:08:28.973Z,99.90
2022-09-09T04:10:59.130Z,99.90
2022-09-09T04:13:28.085Z,99.90
2022-09-09T04:15:59.683Z,99.90
2022-09-09T04:18:29.081Z,99.90
2022-09-09T04:21:00.179Z,99.90
2022-09-09T04:23:30.578Z,99.90
2022-09-09T04:26:00.554Z,99.90
2022-09-09T04:28:30.871Z,99.90
2022-09-09T04:31:08.848Z,99.90
2022-09-09T04:33:40.097Z,99.90
2022-09-09T04:36:09.297Z,99.90
2022-09-09T04:38:37.158Z,99.90
2022-09-09T04:41:05.654Z,99.90
2022-09-09T04:43:35.471Z,99.90
2022-09-09T04:46:05.651Z,99.90
2022-09-09T04:48:33.385Z,99.90
2022-09-09T04:51:05.864Z,99.90
2022-09-09T04:53:39.038Z,99.90
2022-09-09T04:56:11.045Z,99.90
2022-09-09T04:58:46.759Z,99.90
2022-09-09T05:01:21.131Z,99.90
2022-09-09T05:03:50.272Z,99.90
2022-09-09T05:06:22.889Z,99.90
2022-09-09T05:08:54.264Z,99.90
2022-09-09T05:11:28.229Z,99.90
2022-09-09T05:14:04.675Z,99.90
2022-09-09T05:16:33.129Z,99.90
2022-09-09T05:19:00.637Z,99.90
2022-09-09T05:21:37.011Z,99.90
2022-09-09T05:24:04.575Z,99.90
2022-09-09T05:26:32.598Z,99.90
2022-09-09T05:29:01.522Z,99.90
2022-09-09T05:31:31.848Z,99.90
2022-09-09T05:34:02.543Z,99.90
2022-09-09T05:36:30.160Z,99.90
2022-09-09T05:38:58.172Z,99.90
2022-09-09T05:41:29.800Z,99.90
2022-09-09T05:44:00.003Z,99.90
2022-09-09T05:46:27.745Z,99.90
2022-09-09T05:48:56.928Z,99.90
2022-09-09T05:51:31.386Z,99.80
2022-09-09T05:54:01.351Z,99.40
2022-09-09T05:56:33.442Z,99.70
2022-09-09T05:59:02.060Z,98.90
2022-09-09T06:01:32.942Z,98.20
2022-09-09T06:04:02.496Z,96.30
2022-09-09T06:06:40.197Z,95.20
2022-09-09T06:09:14.501Z,95.40
2022-09-09T06:11:44.079Z,95.00
2022-09-09T06:14:12.522Z,96.70
2022-09-09T06:16:43.247Z,97.80
2022-09-09T06:19:17.401Z,97.00
2022-09-09T06:21:45.440Z,94.70
2022-09-09T06:24:14.884Z,93.80
2022-09-09T06:26:42.902Z,93.40
2022-09-09T06:29:13.705Z,92.40
2022-09-09T06:31:43.068Z,92.50
2022-09-09T06:34:16.886Z,90.60
2022-09-09T06:36:48.634Z,91.00
2022-09-09T06:39:16.572Z,90.20
2022-09-09T06:41:45.020Z,88.60
2022-09-09T06:44:35.746Z,88.70
2022-09-09T06:47:05.574Z,90.40
2022-09-09T06:49:34.265Z,88.70
2022-09-09T06:52:03.422Z,88.30
2022-09-09T06:54:31.524Z,90.80
2022-09-09T06:57:11.178Z,90.50
2022-09-09T06:59:49.362Z,91.00
2022-09-09T07:02:17.166Z,92.10
2022-09-09T07:04:45.322Z,92.40
2022-09-09T07:07:14.957Z,91.80
2022-09-09T07:09:42.507Z,91.90
2022-09-09T07:12:10.428Z,91.90
2022-09-09T07:14:41.981Z,92.60
2022-09-09T07:17:10.267Z,92.60
2022-09-09T07:19:39.901Z,92.40
2022-09-09T07:22:07.519Z,92.50
2022-09-09T07:24:36.336Z,92.40
2022-09-09T07:27:04.526Z,92.10
2022-09-09T07:29:32.423Z,92.20
2022-09-09T07:32:00.434Z,92.30
2022-09-09T07:34:33.442Z,91.90
2022-09-09T07:37:01.020Z,92.80
2022-09-09T07:39:29.959Z,94.70
2022-09-09T07:41:57.505Z,94.60
2022-09-09T07:44:26.077Z,95.00
2022-09-09T07:47:19.548Z,94.30
2022-09-09T07:49:50.818Z,94.70
2022-09-09T07:52:23.276Z,94.90
2022-09-09T07:54:55.071Z,95.40
2022-09-09T07:57:22.591Z,96.00
2022-09-09T07:59:52.785Z,95.80
2022-09-09T08:02:20.656Z,95.90
2022-09-09T08:04:48.415Z,95.90
2022-09-09T08:07:17.520Z,95.50
2022-09-09T08:09:50.982Z,95.10
2022-09-09T08:12:25.448Z,95.40
2022-09-09T08:14:55.911Z,95.60
2022-09-09T08:17:25.633Z,95.50
2022-09-09T08:19:53.327Z,95.60
2022-09-09T08:22:25.523Z,95.30
2022-09-09T08:24:53.176Z,94.90
2022-09-09T08:27:20.687Z,94.90
2022-09-09T08:29:48.726Z,95.00
2022-09-09T08:32:17.638Z,94.70
2022-09-09T08:34:46.562Z,95.10
2022-09-09T08:37:21.516Z,95.10
2022-09-09T08:39:53.932Z,95.30
2022-09-09T08:42:47.934Z,95.60
2022-09-09T08:45:21.935Z,95.30
2022-09-09T08:47:55.410Z,95.10
2022-09-09T08:50:36.448Z,95.40
2022-09-09T08:53:21.070Z,94.90
2022-09-09T08:55:55.728Z,94.70
2022-09-09T08:58:54.337Z,94.40
2022-09-09T09:01:55.337Z,94.50
2022-09-09T09:04:28.984Z,94.30
2022-09-09T09:07:09.763Z,94.30
2022-09-09T09:09:38.237Z,93.90
2022-09-09T09:12:20.176Z,93.80
2022-09-09T09:14:49.169Z,93.80
2022-09-09T09:17:22.567Z,93.20
2022-09-09T09:19:51.400Z,93.30
2022-09-09T09:22:45.292Z,93.50
2022-09-09T09:25:20.574Z,93.30
2022-09-09T09:28:02.445Z,92.80
2022-09-09T09:30:40.069Z,92.70
2022-09-09T09:33:36.861Z,92.20
2022-09-09T09:36:06.108Z,92.60
2022-09-09T09:41:36.699Z,91.60
2022-09-09T09:44:06.189Z,91.80
2022-09-09T09:46:34.044Z,91.80
2022-09-09T09:49:11.106Z,91.40
2022-09-09T09:51:41.221Z,91.90
2022-09-09T09:54:29.291Z,91.50
2022-09-09T09:57:12.022Z,91.50
2022-09-09T09:59:41.306Z,91.10
2022-09-09T10:02:26.466Z,91.10
2022-09-09T10:07:38.479Z,99.90
2022-09-09T10:13:04.512Z,99.90
2022-09-09T10:15:40.984Z,99.90
2022-09-09T10:18:36.360Z,99.90
2022-09-09T10:21:25.033Z,99.90
2022-09-09T10:24:17.058Z,99.90
2022-09-09T10:27:08.798Z,99.90
2022-09-09T10:29:48.190Z,99.90
2022-09-09T10:32:39.845Z,99.90
2022-09-09T10:35:27.915Z,99.90
2022-09-09T10:38:16.347Z,99.90
2022-09-09T10:40:57.451Z,99.90
2022-09-09T10:43:24.933Z,99.90
2022-09-09T10:46:23.779Z,99.90
2022-09-09T10:48:59.881Z,99.90
2022-09-09T10:51:34.992Z,99.90
2022-09-09T10:54:27.127Z,99.90
2022-09-09T10:57:04.560Z,99.90
2022-09-09T10:59:39.046Z,99.90
2022-09-09T11:02:27.814Z,99.90
2022-09-09T11:05:15.374Z,99.90
2022-09-09T11:08:09.638Z,99.90
2022-09-09T11:11:05.130Z,99.90
2022-09-09T11:13:44.296Z,99.90
2022-09-09T11:16:11.654Z,99.90
2022-09-09T11:18:44.054Z,99.90
2022-09-09T11:21:31.790Z,99.90
2022-09-09T11:24:10.130Z,99.90
2022-09-09T11:26:50.639Z,99.90
2022-09-09T11:29:38.125Z,99.90
2022-09-09T11:32:20.525Z,99.90
2022-09-09T11:35:03.326Z,99.90
2022-09-09T11:37:57.086Z,99.90
2022-09-09T11:40:29.510Z,99.90
2022-09-09T11:43:07.006Z,99.90
2022-09-09T11:45:36.729Z,99.90
2022-09-09T11:48:07.008Z,99.90
2022-09-09T11:50:37.596Z,99.90
2022-09-09T11:53:16.095Z,99.90
2022-09-09T11:55:43.589Z,99.90
2022-09-09T11:58:11.976Z,99.90
2022-09-09T12:00:48.423Z,99.90
2022-09-09T12:03:48.274Z,99.90
2022-09-09T12:06:42.364Z,99.90
2022-09-09T12:09:20.072Z,99.90
2022-09-09T12:11:47.545Z,99.90
2022-09-09T12:14:39.587Z,99.90
2022-09-09T12:17:16.049Z,99.90
2022-09-09T12:19:43.479Z,99.90
2022-09-09T12:22:35.385Z,99.90
2022-09-09T12:25:05.563Z,99.90
2022-09-09T12:27:38.133Z,99.90
2022-09-09T12:30:17.127Z,99.90
2022-09-09T12:32:45.809Z,99.90
2022-09-09T12:35:19.323Z,97.50
2022-09-09T12:37:57.940Z,96.90
2022-09-09T12:40:30.852Z,95.70
2022-09-09T12:42:59.910Z,94.70
2022-09-09T12:45:31.207Z,95.60
2022-09-09T12:48:08.923Z,96.90
2022-09-09T12:50:46.242Z,96.10
2022-09-09T12:53:36.301Z,95.70
2022-09-09T12:56:19.779Z,95.50
2022-09-09T12:58:50.421Z,96.00
2022-09-09T13:01:31.143Z,93.10
2022-09-09T13:03:59.222Z,95.70
2022-09-09T13:06:29.726Z,93.50
2022-09-09T13:09:02.211Z,92.60
2022-09-09T13:11:59.192Z,95.80
2022-09-09T13:14:38.458Z,91.20
2022-09-09T13:17:08.053Z,92.70
2022-09-09T13:19:39.953Z,93.90
2022-09-09T13:22:34.025Z,91.70
2022-09-09T13:25:05.636Z,91.20
2022-09-09T13:27:42.796Z,94.90
2022-09-09T13:30:28.111Z,93.80
2022-09-09T13:33:24.517Z,93.90
2022-09-09T13:36:01.885Z,96.30
2022-09-09T13:38:31.471Z,93.70
2022-09-09T13:41:11.357Z,94.70
2022-09-09T13:43:46.201Z,93.10
2022-09-09T13:46:36.369Z,95.10
2022-09-09T13:49:12.397Z,94.90
2022-09-09T13:51:47.778Z,95.00
2022-09-09T13:54:17.012Z,95.30
2022-09-09T13:56:45.162Z,93.90
2022-09-09T13:59:15.979Z,93.20
2022-09-09T14:01:43.822Z,94.80
2022-09-09T14:04:11.750Z,95.20
2022-09-09T14:06:40.449Z,95.30
2022-09-09T14:22:26.133Z,94.90
2022-09-09T14:24:53.725Z,95.00
2022-09-09T14:27:21.109Z,96.20
2022-09-09T14:29:48.448Z,95.80
2022-09-09T14:32:15.839Z,95.90
2022-09-09T14:34:43.219Z,95.50
2022-09-09T14:37:10.661Z,95.00
2022-09-09T14:39:38.042Z,95.50
2022-09-09T14:42:06.395Z,95.80
2022-09-09T14:44:34.700Z,95.30
2022-09-09T14:47:02.138Z,94.50
2022-09-09T14:49:29.774Z,95.00
2022-09-09T14:51:57.340Z,94.80
2022-09-09T14:54:24.735Z,93.70
2022-09-09T14:56:52.080Z,94.00
2022-09-09T14:59:19.423Z,94.90
2022-09-09T15:01:46.909Z,93.50
2022-09-09T15:04:17.901Z,94.50
2022-09-09T15:06:48.084Z,93.40
2022-09-09T15:09:16.597Z,93.10
2022-09-09T15:11:45.276Z,93.50
2022-09-09T15:14:13.196Z,94.20
2022-09-09T15:16:41.596Z,94.00
2022-09-09T15:19:10.158Z,94.10
2022-09-09T15:21:38.826Z,93.60
2022-09-09T15:24:09.311Z,92.90
2022-09-09T15:26:39.397Z,93.20
2022-09-09T15:29:09.084Z,93.90
2022-09-09T15:31:37.205Z,92.30
2022-09-09T15:34:06.861Z,92.90
2022-09-09T15:36:49.736Z,92.80
2022-09-09T15:39:18.731Z,93.40
2022-09-09T15:41:47.871Z,93.80
2022-09-09T15:44:16.643Z,94.00
2022-09-09T15:46:51.803Z,93.70
2022-09-09T15:49:26.260Z,94.30
2022-09-09T15:51:59.594Z,93.90
2022-09-09T15:54:27.479Z,95.10
2022-09-09T15:56:57.528Z,94.20
2022-09-09T15:59:26.707Z,94.40
2022-09-09T16:01:55.489Z,94.20
2022-09-09T16:04:24.629Z,94.30
2022-09-09T16:07:01.931Z,94.60
2022-09-09T16:09:30.339Z,94.00
2022-09-09T16:12:02.195Z,94.40
2022-09-09T16:14:29.961Z,94.30
2022-09-09T16:16:57.584Z,94.60
2022-09-09T16:19:25.144Z,95.30
2022-09-09T16:21:52.619Z,94.10
2022-09-09T16:24:21.482Z,94.10
2022-09-09T16:26:51.284Z,94.00
2022-09-09T16:29:19.636Z,94.50
2022-09-09T16:31:47.887Z,94.50
2022-09-09T16:34:18.362Z,93.80
2022-09-09T16:36:46.997Z,94.20
2022-09-09T16:39:17.540Z,94.20
2022-09-09T16:41:46.706Z,94.50
2022-09-09T16:44:16.573Z,95.00
2022-09-09T16:46:45.043Z,95.40
2022-09-09T16:49:14.117Z,95.60
2022-09-09T16:51:48.087Z,95.10
2022-09-09T16:54:17.081Z,95.70
2022-09-09T16:56:47.903Z,95.80
2022-09-09T16:59:17.767Z,95.60
2022-09-09T17:01:47.549Z,95.60
2022-09-09T17:04:25.030Z,95.20
2022-09-09T17:06:54.182Z,95.20
2022-09-09T17:09:23.843Z,95.50
2022-09-09T17:11:53.347Z,95.90
2022-09-09T17:14:23.006Z,96.10
2022-09-09T17:16:50.660Z,96.20
2022-09-09T17:19:18.321Z,96.30
2022-09-09T17:22:15.449Z,96.60
2022-09-09T17:24:35.905Z,96.90
2022-09-09T17:27:03.452Z,97.20
2022-09-09T17:29:30.790Z,97.50
2022-09-09T17:31:59.103Z,97.70
2022-09-09T17:34:26.552Z,98.10
2022-09-09T17:36:53.986Z,97.80
2022-09-09T17:39:21.426Z,97.90
2022-09-09T17:41:49.523Z,98.10
2022-09-09T17:44:16.916Z,98.40
2022-09-09T17:46:44.523Z,98.50
2022-09-09T17:49:18.400Z,98.60
2022-09-09T17:51:46.811Z,98.70
2022-09-09T17:54:21.287Z,99.00
2022-09-09T17:56:49.795Z,99.00
2022-09-09T17:59:18.602Z,98.90
2022-09-09T18:01:47.925Z,99.20
2022-09-09T18:04:17.480Z,99.20
2022-09-09T18:06:48.293Z,99.40
2022-09-09T18:09:19.353Z,99.50
2022-09-09T18:11:49.260Z,99.60
2022-09-09T18:14:21.972Z,99.80
2022-09-09T18:16:49.957Z,99.80
2022-09-09T18:19:21.043Z,99.80
2022-09-09T18:21:49.341Z,99.90
2022-09-09T18:24:18.267Z,99.90
2022-09-09T18:26:46.186Z,99.70
2022-09-09T18:29:16.876Z,99.70
2022-09-09T18:31:44.272Z,99.80
2022-09-09T18:34:12.935Z,99.80
2022-09-09T18:36:46.825Z,99.70
2022-09-09T18:39:17.100Z,99.90
2022-09-09T18:41:47.623Z,99.90
2022-09-09T18:44:17.505Z,99.90
2022-09-09T18:46:45.327Z,99.90
2022-09-09T18:49:13.671Z,99.90
2022-09-09T18:51:43.525Z,99.90
2022-09-09T18:54:15.917Z,99.90
2022-09-09T18:56:43.948Z,99.90
2022-09-09T18:59:15.142Z,99.90
2022-09-09T19:01:42.661Z,99.90
2022-09-09T19:04:10.393Z,99.90
2022-09-09T19:06:41.871Z,99.90
2022-09-09T19:09:14.161Z,99.90
2022-09-09T19:11:42.445Z,99.90
2022-09-09T19:14:13.772Z,99.90
2022-09-09T19:16:41.668Z,99.90
2022-09-09T19:19:13.646Z,99.90
2022-09-09T19:21:42.450Z,99.90
2022-09-09T19:24:19.262Z,99.90
2022-09-09T19:26:58.877Z,99.90
2022-09-09T19:29:29.084Z,99.90
2022-09-09T19:32:42.277Z,99.90
2022-09-09T19:34:46.990Z,99.90
2022-09-09T19:37:18.185Z,99.90
2022-09-09T19:39:47.431Z,99.90
2022-09-09T19:42:15.348Z,99.90
2022-09-09T19:44:42.841Z,99.90
2022-09-09T19:47:10.323Z,99.90
2022-09-09T19:49:37.642Z,99.90
2022-09-09T19:52:05.012Z,99.90
2022-09-09T19:54:32.800Z,99.90
2022-09-09T19:57:01.168Z,99.90
2022-09-09T19:59:28.992Z,99.90
2022-09-09T20:01:57.069Z,99.90
2022-09-09T20:04:24.829Z,99.90
2022-09-09T20:06:53.208Z,99.90
2022-09-09T20:09:22.040Z,99.90
2022-09-09T20:11:50.039Z,99.90
2022-09-09T20:14:18.204Z,99.90
2022-09-09T20:16:46.413Z,99.90
2022-09-09T20:19:18.190Z,99.90
2022-09-09T20:21:49.508Z,99.90
2022-09-09T20:24:19.657Z,99.90
2022-09-09T20:26:48.821Z,99.90
2022-09-09T20:29:19.309Z,99.90
2022-09-09T20:31:47.730Z,99.90
2022-09-09T20:34:18.688Z,99.90
2022-09-09T20:36:47.370Z,99.90
2022-09-09T20:39:17.343Z,99.90
2022-09-09T20:41:46.335Z,99.90
2022-09-09T20:44:16.890Z,99.90
2022-09-09T20:46:49.956Z,99.90
2022-09-09T20:49:20.508Z,99.90
2022-09-09T20:51:50.316Z,99.90
2022-09-09T20:54:20.865Z,99.90
2022-09-09T20:56:48.550Z,99.90
2022-09-09T20:59:21.354Z,99.90
2022-09-09T21:01:48.913Z,99.90
2022-09-09T21:04:18.229Z,99.90
2022-09-09T21:06:46.889Z,99.90
2022-09-09T21:09:14.625Z,99.90
2022-09-09T21:11:42.329Z,99.90
2022-09-09T21:14:09.957Z,99.90
2022-09-09T21:16:37.349Z,99.90
2022-09-09T21:19:05.318Z,99.90
2022-09-09T21:21:32.744Z,99.90
2022-09-09T21:24:02.823Z,99.90
2022-09-09T21:26:30.242Z,99.90
2022-09-09T21:28:59.245Z,99.90
2022-09-09T21:31:28.278Z,99.90
2022-09-09T21:33:57.810Z,99.90
2022-09-09T21:36:28.282Z,99.90
2022-09-09T21:38:56.811Z,99.90
2022-09-09T21:41:24.367Z,99.90
2022-09-09T21:43:54.240Z,99.90
2022-09-09T21:46:23.283Z,99.90
2022-09-09T21:48:51.035Z,99.90
2022-09-09T21:51:18.995Z,99.90
2022-09-09T21:53:46.489Z,99.90
2022-09-09T21:56:16.880Z,99.90
2022-09-09T21:58:44.775Z,99.90
2022-09-09T22:01:18.146Z,99.90
2022-09-09T22:03:46.095Z,99.90
2022-09-09T22:06:16.154Z,99.90
2022-09-09T22:08:44.639Z,99.90
2022-09-09T22:11:14.988Z,99.90
2022-09-09T22:13:42.969Z,99.90
2022-09-09T22:16:13.720Z,99.90
2022-09-09T22:18:41.818Z,99.90
2022-09-09T22:21:18.125Z,99.90
2022-09-09T22:23:50.389Z,99.90
2022-09-09T22:26:17.935Z,99.90
2022-09-09T22:28:45.181Z,99.90
2022-09-09T22:31:12.800Z,99.90
2022-09-09T22:33:40.201Z,99.90
2022-09-09T22:36:08.145Z,99.90
2022-09-09T22:38:36.427Z,99.90
2022-09-09T22:41:05.076Z,99.90
2022-09-09T22:43:33.979Z,99.90
2022-09-09T22:46:02.385Z,99.90
2022-09-09T22:48:33.724Z,99.90
2022-09-09T22:51:12.970Z,99.90
2022-09-09T22:53:42.606Z,99.90
2022-09-09T22:56:17.272Z,99.90
2022-09-09T22:58:46.105Z,99.90
2022-09-09T23:01:19.757Z,99.90
2022-09-09T23:03:48.888Z,99.90
2022-09-09T23:06:22.621Z,99.90
2022-09-09T23:09:00.618Z,99.90
2022-09-09T23:11:31.638Z,99.90
2022-09-09T23:14:01.017Z,99.90
2022-09-09T23:16:39.643Z,99.90
2022-09-09T23:19:09.998Z,99.90
2022-09-09T23:21:40.455Z,99.90
2022-09-09T23:24:10.250Z,99.90
2022-09-09T23:26:38.557Z,99.90
2022-09-09T23:29:06.478Z,99.90
2022-09-09T23:31:38.538Z,99.90
2022-09-09T23:34:06.390Z,99.90
2022-09-09T23:36:34.694Z,99.90
2022-09-09T23:39:04.796Z,99.90
2022-09-09T23:41:35.366Z,99.90
2022-09-09T23:44:03.720Z,99.90
2022-09-09T23:46:32.449Z,99.90
2022-09-09T23:49:00.234Z,99.90
2022-09-09T23:51:30.270Z,99.90
2022-09-09T23:54:00.465Z,99.90
2022-09-09T23:56:31.725Z,99.90
2022-09-09T23:58:59.788Z,99.90
